Portada
METAR-TAF:

METAR-TAF

Aeropuertos :

Ube, Japón

latitud: 33-57N, longitud: 131-15E, altitud: 5 m

Observación

El informe se hizo hace 52 minutos, a las 09:00 UTC
Viento 12 kt del este
Temperatura 7°C
Humedad 81%
Presión 1021 hPa
Visibilidad 10 km o más
Escasas nubes a una altura de 3000 ft
Nubes dispersas a una altura de 4000 ft
Cielo nuboso a una altura de 5000 ft
lluvia ligera

METAR: RJDC 280900Z 10012KT 9999 -RA FEW030 SCT040 BKN050 07/04 Q1021

Hora: 18:52 (09:52 UTC)


TAF: falta

Observaciones y pronósticos meteorológicos de más de 4000 aeropuertos (mensajes METAR y TAF).

Los puntos amarillos y rojos representan las estaciones disponibles.

Ponga el ratón en el punto deseado para ver el nombre de la estación.

Haga clic para ver las observaciones y los pronósticos meteorológicos.

Para cambiar el mapa : haga clic en los botones verdes con una cruz de color negro para hacer un zoom, en el botón verde con un guión para alejar o en las flechas verdes para mapas adyacentes.


METAR-TAF: